createdAt,value
2023-09-25T00:00:13.400Z,3.20
2023-09-25T00:03:03.368Z,3.30
2023-09-25T00:05:32.092Z,3.80
2023-09-25T00:08:00.322Z,4.00
2023-09-25T00:10:29.579Z,3.40
2023-09-25T00:12:57.650Z,3.00
2023-09-25T00:15:26.418Z,4.00
2023-09-25T00:17:55.042Z,3.60
2023-09-25T00:20:25.728Z,3.60
2023-09-25T00:22:53.975Z,3.90
2023-09-25T00:25:22.100Z,3.90
2023-09-25T00:27:50.537Z,3.10
2023-09-25T00:30:19.013Z,3.50
2023-09-25T00:32:47.214Z,3.80
2023-09-25T00:35:15.639Z,3.50
2023-09-25T00:37:44.092Z,4.00
2023-09-25T00:40:15.257Z,3.80
2023-09-25T00:42:48.151Z,4.20
2023-09-25T00:45:17.575Z,4.60
2023-09-25T00:47:45.971Z,3.90
2023-09-25T00:50:14.250Z,4.30
2023-09-25T00:52:44.759Z,4.40
2023-09-25T00:55:17.517Z,4.70
2023-09-25T00:57:50.214Z,3.60
2023-09-25T01:00:19.590Z,3.80
2023-09-25T01:02:49.286Z,3.90
2023-09-25T01:05:18.258Z,3.40
2023-09-25T01:07:46.750Z,4.70
2023-09-25T01:10:17.777Z,4.00
2023-09-25T01:12:47.600Z,4.00
2023-09-25T01:15:16.268Z,3.30
2023-09-25T01:17:45.271Z,4.10
2023-09-25T01:20:18.996Z,3.60
2023-09-25T01:22:50.052Z,3.30
2023-09-25T01:25:19.966Z,5.80
2023-09-25T01:27:49.199Z,4.10
2023-09-25T01:30:19.229Z,3.40
2023-09-25T01:32:51.085Z,4.50
2023-09-25T01:35:24.502Z,3.70
2023-09-25T01:38:01.379Z,5.20
2023-09-25T01:40:29.550Z,5.40
2023-09-25T01:42:58.747Z,4.20
2023-09-25T01:45:26.994Z,3.80
2023-09-25T01:47:57.121Z,2.90
2023-09-25T01:50:26.908Z,4.40
2023-09-25T01:52:57.677Z,3.80
2023-09-25T01:55:30.496Z,3.10
2023-09-25T01:58:00.080Z,3.40
2023-09-25T02:00:28.302Z,4.70
2023-09-25T02:02:56.588Z,3.20
2023-09-25T02:05:25.133Z,3.70
2023-09-25T02:07:54.200Z,3.40
2023-09-25T02:10:23.111Z,4.50
2023-09-25T02:12:51.465Z,3.30
2023-09-25T02:15:19.963Z,3.30
2023-09-25T02:17:48.472Z,4.30
2023-09-25T02:20:22.346Z,3.30
2023-09-25T02:22:52.796Z,2.80
2023-09-25T02:25:21.051Z,3.70
2023-09-25T02:27:49.449Z,5.20
2023-09-25T02:30:17.939Z,4.40
2023-09-25T02:32:46.231Z,3.90
2023-09-25T02:35:15.049Z,4.30
2023-09-25T02:37:46.176Z,3.30
2023-09-25T02:40:15.464Z,4.50
2023-09-25T02:42:48.746Z,3.40
2023-09-25T02:45:17.992Z,5.10
2023-09-25T02:47:46.529Z,3.40
2023-09-25T02:50:17.281Z,4.60
2023-09-25T02:52:45.503Z,3.60
2023-09-25T02:55:14.832Z,2.80
2023-09-25T02:57:44.137Z,3.10
2023-09-25T03:00:14.096Z,4.00
2023-09-25T03:02:43.949Z,3.30
2023-09-25T03:05:12.692Z,5.40
2023-09-25T03:07:42.093Z,3.80
2023-09-25T03:10:10.483Z,4.70
2023-09-25T03:12:39.208Z,5.00
2023-09-25T03:15:08.280Z,3.90
2023-09-25T03:17:37.161Z,5.80
2023-09-25T03:20:09.930Z,3.20
2023-09-25T03:22:38.093Z,4.20
2023-09-25T03:25:06.945Z,3.90
2023-09-25T03:27:35.334Z,3.40
2023-09-25T03:30:04.257Z,3.60
2023-09-25T03:32:32.990Z,4.10
2023-09-25T03:35:05.350Z,4.40
2023-09-25T03:37:33.594Z,3.80
2023-09-25T03:40:02.180Z,6.40
2023-09-25T03:42:30.714Z,4.60
2023-09-25T03:44:59.331Z,4.00
2023-09-25T03:47:27.534Z,4.10
2023-09-25T03:49:56.394Z,3.30
2023-09-25T03:52:25.086Z,3.60
2023-09-25T03:54:53.252Z,3.70
2023-09-25T03:57:21.477Z,4.70
2023-09-25T03:59:49.711Z,4.10
2023-09-25T04:02:17.872Z,4.10
2023-09-25T04:04:46.326Z,4.20
2023-09-25T04:07:15.048Z,5.80
2023-09-25T04:09:43.780Z,5.70
2023-09-25T04:12:12.957Z,6.40
2023-09-25T04:14:42.431Z,5.80
2023-09-25T04:17:12.229Z,5.20
2023-09-25T04:19:40.544Z,4.10
2023-09-25T04:22:08.787Z,4.40
2023-09-25T04:24:39.865Z,5.40
2023-09-25T04:27:08.852Z,3.70
2023-09-25T04:29:39.806Z,5.00
2023-09-25T04:32:08.178Z,4.70
2023-09-25T04:34:39.586Z,5.60
2023-09-25T04:37:09.584Z,5.10
2023-09-25T04:39:37.878Z,6.30
2023-09-25T04:42:06.160Z,6.50
2023-09-25T04:44:34.544Z,7.20
2023-09-25T04:47:02.602Z,6.50
2023-09-25T04:49:32.204Z,4.90
2023-09-25T04:52:00.425Z,6.00
2023-09-25T04:54:28.774Z,5.40
2023-09-25T04:56:57.338Z,7.10
2023-09-25T04:59:25.522Z,5.50
2023-09-25T05:01:53.583Z,7.20
2023-09-25T05:04:21.692Z,7.10
2023-09-25T05:06:50.129Z,5.80
2023-09-25T05:09:18.353Z,5.10
2023-09-25T05:11:46.991Z,7.10
2023-09-25T05:14:15.567Z,7.90
2023-09-25T05:16:43.574Z,8.40
2023-09-25T05:19:11.610Z,7.20
2023-09-25T05:21:39.705Z,6.80
2023-09-25T05:24:08.689Z,10.10
2023-09-25T05:26:37.896Z,7.10
2023-09-25T05:29:06.757Z,8.40
2023-09-25T05:31:35.072Z,7.80
2023-09-25T05:34:04.240Z,7.60
2023-09-25T05:36:32.501Z,9.40
2023-09-25T05:39:00.786Z,11.20
2023-09-25T05:41:29.056Z,11.90
2023-09-25T05:43:58.447Z,10.90
2023-09-25T05:46:27.201Z,10.60
2023-09-25T05:48:57.752Z,10.90
2023-09-25T05:51:28.038Z,8.70
2023-09-25T05:53:56.686Z,9.40
2023-09-25T05:56:24.988Z,9.20
2023-09-25T05:58:54.158Z,8.00
2023-09-25T06:01:22.627Z,9.80
2023-09-25T06:03:51.585Z,8.10
2023-09-25T06:06:21.540Z,8.50
2023-09-25T06:08:50.131Z,7.60
2023-09-25T06:11:18.602Z,9.30
2023-09-25T06:13:46.840Z,13.50
2023-09-25T06:16:15.178Z,9.40
2023-09-25T06:18:43.975Z,11.70
2023-09-25T06:21:14.450Z,11.00
2023-09-25T06:23:44.217Z,10.60
2023-09-25T06:26:12.316Z,13.60
2023-09-25T06:28:40.422Z,10.40
2023-09-25T06:31:08.932Z,18.90
2023-09-25T06:33:37.390Z,9.90
2023-09-25T06:36:06.119Z,8.00
2023-09-25T06:38:35.366Z,6.20
2023-09-25T06:41:03.455Z,8.50
2023-09-25T06:43:31.605Z,7.40
2023-09-25T06:45:59.706Z,6.30
2023-09-25T06:48:27.913Z,7.70
2023-09-25T06:50:56.017Z,5.70
2023-09-25T06:53:24.183Z,7.20
2023-09-25T06:55:52.197Z,5.30
2023-09-25T06:58:20.274Z,3.70
2023-09-25T07:00:57.153Z,5.30
2023-09-25T07:03:26.978Z,6.10
2023-09-25T07:05:55.537Z,3.60
2023-09-25T07:08:25.053Z,4.90
2023-09-25T07:10:53.629Z,4.60
2023-09-25T07:13:21.962Z,2.60
2023-09-25T07:15:50.301Z,3.00
2023-09-25T07:18:18.811Z,2.20
2023-09-25T07:20:54.696Z,2.90
2023-09-25T07:23:23.431Z,2.90
2023-09-25T07:26:00.686Z,3.70
2023-09-25T07:28:29.128Z,2.70
2023-09-25T07:30:57.556Z,3.30
2023-09-25T07:33:25.880Z,2.20
2023-09-25T07:35:54.786Z,2.50
2023-09-25T07:38:23.910Z,2.70
2023-09-25T07:41:00.799Z,2.50
2023-09-25T07:43:46.594Z,4.30
2023-09-25T07:46:19.793Z,2.80
2023-09-25T07:48:49.070Z,3.20
2023-09-25T07:51:18.704Z,3.40
2023-09-25T07:53:46.811Z,4.90
2023-09-25T07:56:15.195Z,2.40
2023-09-25T07:58:43.619Z,4.20
2023-09-25T08:01:15.492Z,4.10
2023-09-25T08:03:44.844Z,2.60
2023-09-25T08:06:13.736Z,4.30
2023-09-25T08:08:42.310Z,4.80
2023-09-25T08:11:10.479Z,4.10
2023-09-25T08:13:38.546Z,2.60
2023-09-25T08:16:07.655Z,4.50
2023-09-25T08:18:36.800Z,2.60
2023-09-25T08:21:06.179Z,2.90
2023-09-25T08:23:34.508Z,3.60
2023-09-25T08:26:06.698Z,3.40
2023-09-25T08:28:35.740Z,3.80
2023-09-25T08:31:04.074Z,3.90
2023-09-25T08:33:32.380Z,2.50
2023-09-25T08:36:00.702Z,4.10
2023-09-25T08:38:28.877Z,2.70
2023-09-25T08:40:57.053Z,3.10
2023-09-25T08:43:27.925Z,4.50
2023-09-25T08:45:57.775Z,3.30
2023-09-25T08:48:26.511Z,4.30
2023-09-25T08:50:55.168Z,3.70
2023-09-25T08:53:23.926Z,2.90
2023-09-25T08:55:52.129Z,2.60
2023-09-25T08:58:21.368Z,3.60
2023-09-25T09:00:49.748Z,3.00
2023-09-25T09:03:18.096Z,3.40
2023-09-25T09:05:48.317Z,2.40
2023-09-25T09:08:18.248Z,36.70
2023-09-25T09:10:46.643Z,27.60
2023-09-25T09:13:15.695Z,6.40
2023-09-25T09:15:44.031Z,4.40
2023-09-25T09:18:27.530Z,9.80
2023-09-25T09:20:57.276Z,2.70
2023-09-25T09:23:43.972Z,4.10
2023-09-25T09:26:15.622Z,3.40
2023-09-25T09:28:48.688Z,2.30
2023-09-25T09:31:20.650Z,2.70
2023-09-25T09:33:49.338Z,3.20
2023-09-25T09:36:21.451Z,4.20
2023-09-25T09:38:51.495Z,4.10
2023-09-25T09:41:20.476Z,2.70
2023-09-25T09:43:49.067Z,4.00
2023-09-25T09:46:17.903Z,2.70
2023-09-25T09:48:48.931Z,3.20
2023-09-25T09:51:19.503Z,2.50
2023-09-25T09:53:49.539Z,1.90
2023-09-25T09:56:19.650Z,3.90
2023-09-25T09:58:49.276Z,2.40
2023-09-25T10:01:18.642Z,2.70
2023-09-25T10:03:47.943Z,2.30
2023-09-25T10:06:16.233Z,2.80
2023-09-25T10:09:01.545Z,2.30
2023-09-25T10:11:31.269Z,3.20
2023-09-25T10:14:09.331Z,1.80
2023-09-25T10:16:59.093Z,4.90
2023-09-25T10:19:42.649Z,2.70
2023-09-25T10:22:24.386Z,2.10
2023-09-25T10:25:12.879Z,2.10
2023-09-25T10:27:42.175Z,3.50
2023-09-25T10:30:17.418Z,3.80
2023-09-25T10:32:57.069Z,2.60
2023-09-25T10:35:46.247Z,1.90
2023-09-25T10:38:31.044Z,2.60
2023-09-25T10:41:04.079Z,2.10
2023-09-25T10:43:34.027Z,2.80
2023-09-25T10:46:03.543Z,3.20
2023-09-25T10:48:33.147Z,3.70
2023-09-25T10:51:01.533Z,2.80
2023-09-25T10:53:29.972Z,2.70
2023-09-25T10:55:58.374Z,1.60
2023-09-25T10:58:27.803Z,2.50
2023-09-25T11:00:56.654Z,1.70
2023-09-25T11:03:25.949Z,2.20
2023-09-25T11:05:54.925Z,1.90
2023-09-25T11:08:23.074Z,4.40
2023-09-25T11:10:51.776Z,2.60
2023-09-25T11:13:22.249Z,3.40
2023-09-25T11:15:51.744Z,1.60
2023-09-25T11:18:21.500Z,1.80
2023-09-25T11:20:52.612Z,1.70
2023-09-25T11:23:22.868Z,3.40
2023-09-25T11:25:53.632Z,3.00
2023-09-25T11:28:25.467Z,2.20
2023-09-25T11:30:54.042Z,3.40
2023-09-25T11:33:24.713Z,2.10
2023-09-25T11:35:54.497Z,1.60
2023-09-25T11:38:29.891Z,2.50
2023-09-25T11:41:02.539Z,3.00
2023-09-25T11:43:30.692Z,2.30
2023-09-25T11:45:59.063Z,2.80
2023-09-25T11:48:27.613Z,2.40
2023-09-25T11:50:57.881Z,2.30
2023-09-25T11:53:26.342Z,2.60
2023-09-25T11:55:55.267Z,2.30
2023-09-25T11:58:24.030Z,3.30
2023-09-25T12:00:52.377Z,2.70
2023-09-25T12:03:20.869Z,2.70
2023-09-25T12:05:50.275Z,4.70
2023-09-25T12:08:19.421Z,2.50
2023-09-25T12:10:47.491Z,4.60
2023-09-25T12:13:17.151Z,2.60
2023-09-25T12:15:46.395Z,2.30
2023-09-25T12:18:15.512Z,2.80
2023-09-25T12:20:44.701Z,4.50
2023-09-25T12:23:13.737Z,2.70
2023-09-25T12:25:42.222Z,2.60
2023-09-25T12:28:10.463Z,3.70
2023-09-25T12:30:38.793Z,3.10
2023-09-25T12:33:09.209Z,1.70
2023-09-25T12:35:42.372Z,2.20
2023-09-25T12:38:10.763Z,2.80
2023-09-25T12:40:38.942Z,5.10
2023-09-25T12:43:07.030Z,2.30
2023-09-25T12:45:35.273Z,4.10
2023-09-25T12:48:03.741Z,2.30
2023-09-25T12:50:34.195Z,2.40
2023-09-25T12:53:02.952Z,4.30
2023-09-25T12:55:35.597Z,2.90
2023-09-25T12:58:05.624Z,2.40
2023-09-25T13:00:34.020Z,3.30
2023-09-25T13:03:02.549Z,2.40
2023-09-25T13:05:34.371Z,8.60
2023-09-25T13:08:02.870Z,5.00
2023-09-25T13:10:31.195Z,12.10
2023-09-25T13:12:59.345Z,6.50
2023-09-25T13:15:27.677Z,3.40
2023-09-25T13:17:56.128Z,3.10
2023-09-25T13:20:24.619Z,3.00
2023-09-25T13:22:53.949Z,2.40
2023-09-25T13:25:22.090Z,2.00
2023-09-25T13:27:51.326Z,5.70
2023-09-25T13:30:21.447Z,4.10
2023-09-25T13:32:50.763Z,3.00
2023-09-25T13:35:20.764Z,3.10
2023-09-25T13:37:48.970Z,2.40
2023-09-25T13:40:22.107Z,2.70
2023-09-25T13:42:50.389Z,3.20
2023-09-25T13:45:18.896Z,2.90
2023-09-25T13:47:47.178Z,1.90
2023-09-25T13:50:15.807Z,2.40
2023-09-25T13:52:44.131Z,1.80
2023-09-25T13:55:15.047Z,2.40
2023-09-25T13:57:44.980Z,2.00
2023-09-25T14:00:14.023Z,3.00
2023-09-25T14:02:42.630Z,1.70
2023-09-25T14:05:13.379Z,2.60
2023-09-25T14:07:42.443Z,3.30
2023-09-25T14:10:14.901Z,3.60
2023-09-25T14:12:48.115Z,3.10
2023-09-25T14:15:16.345Z,2.40
2023-09-25T14:17:45.521Z,2.80
2023-09-25T14:20:14.601Z,3.40
2023-09-25T14:22:43.355Z,1.90
2023-09-25T14:25:12.060Z,1.50
2023-09-25T14:27:40.818Z,1.60
2023-09-25T14:30:09.961Z,1.90
2023-09-25T14:32:38.235Z,3.10
2023-09-25T14:35:07.946Z,1.40
2023-09-25T14:37:36.458Z,3.10
2023-09-25T14:40:07.031Z,2.50
2023-09-25T14:42:38.472Z,1.50
2023-09-25T14:45:07.465Z,2.80
2023-09-25T14:47:35.712Z,2.30
2023-09-25T14:50:04.050Z,1.60
2023-09-25T14:52:32.267Z,2.80
2023-09-25T14:55:01.098Z,2.30
2023-09-25T14:57:30.155Z,2.80
2023-09-25T14:59:58.472Z,1.70
2023-09-25T15:02:27.848Z,1.80
2023-09-25T15:04:56.272Z,1.40
2023-09-25T15:07:24.538Z,2.10
2023-09-25T15:09:52.971Z,2.30
2023-09-25T15:12:25.066Z,4.00
2023-09-25T15:14:53.181Z,2.90
2023-09-25T15:17:22.775Z,3.20
2023-09-25T15:19:51.022Z,3.00
2023-09-25T15:22:19.090Z,2.60
2023-09-25T15:24:47.224Z,3.00
2023-09-25T15:27:15.693Z,2.10
2023-09-25T15:29:45.289Z,3.10
2023-09-25T15:32:13.830Z,2.70
2023-09-25T15:34:42.735Z,4.10
2023-09-25T15:37:11.944Z,2.70
2023-09-25T15:39:43.267Z,2.00
2023-09-25T15:42:11.437Z,3.90
2023-09-25T15:44:39.544Z,1.70
2023-09-25T15:47:07.787Z,1.80
2023-09-25T15:49:36.059Z,2.10
2023-09-25T15:52:04.728Z,2.40
2023-09-25T15:54:32.936Z,2.30
2023-09-25T15:57:00.997Z,2.20
2023-09-25T15:59:29.098Z,2.20
2023-09-25T16:01:57.272Z,3.20
2023-09-25T16:04:25.488Z,2.30
2023-09-25T16:06:53.705Z,3.50
2023-09-25T16:09:21.856Z,1.90
2023-09-25T16:11:50.022Z,2.50
2023-09-25T16:14:18.200Z,3.40
2023-09-25T16:16:46.405Z,3.30
2023-09-25T16:19:14.677Z,2.40
2023-09-25T16:21:43.059Z,2.60
2023-09-25T16:24:11.210Z,2.90
2023-09-25T16:26:39.469Z,2.70
2023-09-25T16:29:07.663Z,3.60
2023-09-25T16:31:35.718Z,3.10
2023-09-25T16:34:06.541Z,3.20
2023-09-25T16:36:34.914Z,2.80
2023-09-25T16:39:03.827Z,3.10
2023-09-25T16:41:31.995Z,2.80
2023-09-25T16:44:00.065Z,4.00
2023-09-25T16:46:28.564Z,2.80
2023-09-25T16:48:57.733Z,2.20
2023-09-25T16:51:25.931Z,2.00
2023-09-25T16:53:54.298Z,2.80
2023-09-25T16:56:22.670Z,2.60
2023-09-25T16:58:50.844Z,2.60
2023-09-25T17:01:19.540Z,2.80
2023-09-25T17:03:47.867Z,2.80
2023-09-25T17:06:16.305Z,1.90
2023-09-25T17:08:44.556Z,1.70
2023-09-25T17:11:12.937Z,3.40
2023-09-25T17:13:41.107Z,1.70
2023-09-25T17:16:10.463Z,2.80
2023-09-25T17:18:38.996Z,2.10
2023-09-25T17:21:07.379Z,2.70
2023-09-25T17:23:35.538Z,3.00
2023-09-25T17:26:03.668Z,3.00
2023-09-25T17:28:31.784Z,3.00
2023-09-25T17:31:10.802Z,3.20
2023-09-25T17:33:39.753Z,2.90
2023-09-25T17:36:08.481Z,2.50
2023-09-25T17:38:36.769Z,1.90
2023-09-25T17:41:05.044Z,2.60
2023-09-25T17:43:33.215Z,3.10
2023-09-25T17:46:04.101Z,2.20
2023-09-25T17:48:33.305Z,3.10
2023-09-25T17:51:03.787Z,1.80
2023-09-25T17:53:32.451Z,2.20
2023-09-25T17:56:00.633Z,2.30
2023-09-25T17:58:31.024Z,1.80
2023-09-25T18:01:03.441Z,2.70
2023-09-25T18:03:31.732Z,2.20
2023-09-25T18:06:00.245Z,3.30
2023-09-25T18:08:28.344Z,2.90
2023-09-25T18:10:56.461Z,4.10
2023-09-25T18:13:24.520Z,2.90
2023-09-25T18:15:52.986Z,2.20
2023-09-25T18:18:21.309Z,2.20
2023-09-25T18:20:49.403Z,2.20
2023-09-25T18:23:17.418Z,3.00
2023-09-25T18:25:46.198Z,3.80
2023-09-25T18:28:14.717Z,3.60
2023-09-25T18:30:42.860Z,2.70
2023-09-25T18:33:11.518Z,2.20
2023-09-25T18:35:43.178Z,2.70
2023-09-25T18:38:11.462Z,2.00
2023-09-25T18:40:39.560Z,2.70
2023-09-25T18:43:07.837Z,2.30
2023-09-25T18:45:36.077Z,3.20
2023-09-25T18:48:04.670Z,2.40
2023-09-25T18:50:32.784Z,2.40
2023-09-25T18:53:00.999Z,3.80
2023-09-25T18:55:31.711Z,3.50
2023-09-25T18:58:00.167Z,2.70
2023-09-25T19:00:28.309Z,4.00
2023-09-25T19:02:57.779Z,2.90
2023-09-25T19:05:26.093Z,2.50
2023-09-25T19:07:54.754Z,4.00
2023-09-25T19:10:23.016Z,2.20
2023-09-25T19:12:51.105Z,2.70
2023-09-25T19:15:21.308Z,3.10
2023-09-25T19:17:49.415Z,3.00
2023-09-25T19:20:18.093Z,2.80
2023-09-25T19:22:46.294Z,3.40
2023-09-25T19:25:14.388Z,3.30
2023-09-25T19:27:47.358Z,2.90
2023-09-25T19:30:15.976Z,2.90
2023-09-25T19:32:44.417Z,3.10
2023-09-25T19:35:12.743Z,3.00
2023-09-25T19:37:40.906Z,3.20
2023-09-25T19:40:09.233Z,3.60
2023-09-25T19:42:37.464Z,3.50
2023-09-25T19:45:05.952Z,3.40
2023-09-25T19:47:34.117Z,2.90
2023-09-25T19:50:02.283Z,4.40
2023-09-25T19:52:30.557Z,3.20
2023-09-25T19:55:01.703Z,3.80
2023-09-25T19:57:30.078Z,2.90
2023-09-25T19:59:58.089Z,3.60
2023-09-25T20:02:26.157Z,4.30
2023-09-25T20:04:54.568Z,2.50
2023-09-25T20:07:22.911Z,3.60
2023-09-25T20:09:51.256Z,2.50
2023-09-25T20:12:19.435Z,3.30
2023-09-25T20:14:47.500Z,3.90
2023-09-25T20:17:15.667Z,2.50
2023-09-25T20:19:43.880Z,3.70
2023-09-25T20:22:12.197Z,2.90
2023-09-25T20:24:40.354Z,2.50
2023-09-25T20:27:10.056Z,3.10
2023-09-25T20:29:38.475Z,3.60
2023-09-25T20:32:06.557Z,2.80
2023-09-25T20:34:34.879Z,2.80
2023-09-25T20:37:03.592Z,3.00
2023-09-25T20:39:31.844Z,2.40
2023-09-25T20:42:00.824Z,3.40
2023-09-25T20:44:28.952Z,2.40
2023-09-25T20:46:59.997Z,3.80
2023-09-25T20:49:28.880Z,2.70
2023-09-25T20:51:57.173Z,1.80
2023-09-25T20:54:27.189Z,2.40
2023-09-25T20:56:57.499Z,3.90
2023-09-25T20:59:25.669Z,3.50
2023-09-25T21:01:53.702Z,2.80
2023-09-25T21:04:22.013Z,2.80
2023-09-25T21:06:50.328Z,4.60
2023-09-25T21:09:18.569Z,3.30
2023-09-25T21:11:46.743Z,2.70
2023-09-25T21:14:14.922Z,3.50
2023-09-25T21:16:43.189Z,2.60
2023-09-25T21:19:11.393Z,2.10
2023-09-25T21:21:39.682Z,3.10
2023-09-25T21:24:08.287Z,2.80
2023-09-25T21:26:36.396Z,2.20
2023-09-25T21:29:04.423Z,2.10
2023-09-25T21:31:32.636Z,2.70
2023-09-25T21:34:00.958Z,2.50
2023-09-25T21:36:29.079Z,3.10
2023-09-25T21:38:57.476Z,3.10
2023-09-25T21:41:25.734Z,3.80
2023-09-25T21:43:54.117Z,2.60
2023-09-25T21:46:22.373Z,2.80
2023-09-25T21:48:50.609Z,3.30
2023-09-25T21:51:19.043Z,2.80
2023-09-25T21:53:47.118Z,3.00
2023-09-25T21:56:15.178Z,2.20
2023-09-25T21:58:43.154Z,2.30
2023-09-25T22:01:11.600Z,2.80
2023-09-25T22:03:39.952Z,2.50
2023-09-25T22:06:08.242Z,3.90
2023-09-25T22:08:36.230Z,2.80
2023-09-25T22:11:07.296Z,3.80
2023-09-25T22:13:35.981Z,2.00
2023-09-25T22:16:04.542Z,2.90
2023-09-25T22:18:33.039Z,2.70
2023-09-25T22:21:01.106Z,2.70
2023-09-25T22:23:29.482Z,3.40
2023-09-25T22:25:58.384Z,2.60
2023-09-25T22:28:26.548Z,2.70
2023-09-25T22:30:55.197Z,3.20
2023-09-25T22:33:24.118Z,3.90
2023-09-25T22:35:52.193Z,3.10
2023-09-25T22:38:20.569Z,2.30
2023-09-25T22:40:48.661Z,3.00
2023-09-25T22:43:17.483Z,2.90
2023-09-25T22:45:45.758Z,2.90
2023-09-25T22:48:13.926Z,4.10
2023-09-25T22:50:41.999Z,3.60
2023-09-25T22:53:11.042Z,3.70
2023-09-25T22:55:39.055Z,2.60
2023-09-25T22:58:07.615Z,3.50
2023-09-25T23:00:35.675Z,2.40
2023-09-25T23:03:04.722Z,3.40
2023-09-25T23:05:32.901Z,3.10
2023-09-25T23:08:01.110Z,3.60
2023-09-25T23:10:29.627Z,3.50
2023-09-25T23:12:57.909Z,3.10
2023-09-25T23:15:26.650Z,2.90
2023-09-25T23:17:54.814Z,3.30
2023-09-25T23:20:25.978Z,3.30
2023-09-25T23:22:58.637Z,3.80
2023-09-25T23:25:28.036Z,2.90
2023-09-25T23:27:56.745Z,3.30
2023-09-25T23:30:25.251Z,2.30
2023-09-25T23:32:53.583Z,3.20
2023-09-25T23:35:21.834Z,2.40
2023-09-25T23:37:50.198Z,3.90
2023-09-25T23:40:20.882Z,2.50
2023-09-25T23:42:49.284Z,4.00
2023-09-25T23:45:18.795Z,2.70
2023-09-25T23:47:49.125Z,3.20
2023-09-25T23:50:17.467Z,2.50
2023-09-25T23:52:46.241Z,2.90
2023-09-25T23:55:15.804Z,3.60
2023-09-25T23:57:44.096Z,2.40
